createdAt,value
2018-05-06T00:00:47.793Z,6.18
2018-05-06T00:03:15.281Z,5.57
2018-05-06T00:05:42.827Z,6.47
2018-05-06T00:08:10.632Z,6.20
2018-05-06T00:10:38.075Z,5.50
2018-05-06T00:13:06.488Z,5.75
2018-05-06T00:15:33.880Z,5.73
2018-05-06T00:18:04.844Z,4.73
2018-05-06T00:20:32.237Z,5.07
2018-05-06T00:22:59.862Z,5.85
2018-05-06T00:25:27.251Z,5.80
2018-05-06T00:27:54.654Z,4.77
2018-05-06T00:30:22.051Z,6.47
2018-05-06T00:32:49.439Z,5.10
2018-05-06T00:35:17.197Z,5.30
2018-05-06T00:37:44.571Z,4.87
2018-05-06T00:40:12.300Z,4.70
2018-05-06T00:42:39.696Z,6.40
2018-05-06T00:45:07.924Z,4.80
2018-05-06T00:47:35.327Z,5.65
2018-05-06T00:50:02.733Z,6.00
2018-05-06T00:52:30.376Z,5.53
2018-05-06T00:54:57.767Z,5.10
2018-05-06T00:57:25.147Z,5.10
2018-05-06T00:59:53.478Z,5.67
2018-05-06T01:02:20.860Z,5.40
2018-05-06T01:04:48.247Z,5.00
2018-05-06T01:07:16.319Z,5.50
2018-05-06T01:09:43.719Z,5.15
2018-05-06T01:12:11.124Z,5.37
2018-05-06T01:14:39.263Z,6.07
2018-05-06T01:17:06.651Z,5.63
2018-05-06T01:19:34.121Z,6.63
2018-05-06T01:22:01.885Z,5.47
2018-05-06T01:24:29.267Z,6.40
2018-05-06T01:26:56.665Z,5.12
2018-05-06T01:29:24.040Z,6.30
2018-05-06T01:31:51.445Z,5.80
2018-05-06T01:34:19.761Z,5.17
2018-05-06T01:36:47.160Z,5.35
2018-05-06T01:39:14.540Z,5.10
2018-05-06T01:41:41.940Z,4.50
2018-05-06T01:44:09.402Z,5.80
2018-05-06T01:46:36.805Z,5.53
2018-05-06T01:49:05.155Z,6.17
2018-05-06T01:51:32.814Z,5.00
2018-05-06T01:54:00.261Z,6.17
2018-05-06T01:56:27.663Z,5.60
2018-05-06T01:58:55.552Z,5.62
2018-05-06T02:01:22.953Z,5.40
2018-05-06T02:03:50.345Z,5.20
2018-05-06T02:06:17.858Z,6.03
2018-05-06T02:08:45.244Z,7.07
2018-05-06T02:11:12.636Z,5.03
2018-05-06T02:13:40.550Z,5.73
2018-05-06T02:16:07.948Z,6.33
2018-05-06T02:18:35.764Z,5.00
2018-05-06T02:21:04.073Z,4.67
2018-05-06T02:23:31.452Z,5.17
2018-05-06T02:25:58.845Z,5.20
2018-05-06T02:28:26.239Z,5.33
2018-05-06T02:30:54.529Z,5.17
2018-05-06T02:33:23.158Z,4.70
2018-05-06T02:35:50.563Z,5.80
2018-05-06T02:38:17.936Z,5.20
2018-05-06T02:40:46.284Z,6.47
2018-05-06T02:43:13.675Z,5.43
2018-05-06T02:45:41.060Z,5.03
2018-05-06T02:48:09.158Z,5.00
2018-05-06T02:50:36.528Z,5.47
2018-05-06T02:53:03.929Z,4.85
2018-05-06T02:55:31.316Z,5.30
2018-05-06T02:57:58.718Z,5.53
2018-05-06T03:00:26.098Z,5.37
2018-05-06T03:02:53.489Z,5.77
2018-05-06T03:05:20.875Z,5.80
2018-05-06T03:07:48.266Z,6.37
2018-05-06T03:10:15.656Z,4.97
2018-05-06T03:12:43.039Z,5.10
2018-05-06T03:15:10.428Z,5.27
2018-05-06T03:17:37.830Z,6.07
2018-05-06T03:20:06.340Z,6.43
2018-05-06T03:25:08.058Z,6.05
2018-05-06T03:27:35.468Z,6.33
2018-05-06T03:30:02.857Z,5.03
2018-05-06T03:32:30.256Z,5.37
2018-05-06T03:34:58.608Z,5.60
2018-05-06T03:37:26.016Z,6.00
2018-05-06T03:39:53.393Z,5.28
2018-05-06T03:42:20.772Z,5.47
2018-05-06T03:44:48.615Z,5.70
2018-05-06T03:47:16.583Z,6.10
2018-05-06T03:49:45.795Z,5.77
2018-05-06T03:52:13.184Z,5.10
2018-05-06T03:54:40.589Z,5.93
2018-05-06T03:57:20.042Z,5.30
2018-05-06T04:00:00.101Z,5.33
2018-05-06T04:02:42.368Z,5.05
2018-05-06T04:05:10.677Z,6.23
2018-05-06T04:07:38.046Z,5.37
2018-05-06T04:10:05.743Z,6.13
2018-05-06T04:12:33.142Z,5.62
2018-05-06T04:15:00.555Z,5.32
2018-05-06T04:17:28.232Z,5.10
2018-05-06T04:19:55.622Z,4.30
2018-05-06T04:22:23.008Z,6.43
2018-05-06T04:24:50.408Z,4.37
2018-05-06T04:27:18.227Z,5.30
2018-05-06T04:29:46.439Z,4.57
2018-05-06T04:32:13.833Z,4.50
2018-05-06T04:34:41.223Z,4.30
2018-05-06T04:37:08.611Z,4.87
2018-05-06T04:39:36.008Z,4.12
2018-05-06T04:42:03.385Z,4.90
2018-05-06T04:44:31.397Z,6.68
2018-05-06T04:46:58.788Z,4.62
2018-05-06T04:49:26.167Z,4.55
2018-05-06T04:51:53.721Z,5.07
2018-05-06T04:54:22.015Z,4.30
2018-05-06T04:56:49.391Z,4.13
2018-05-06T04:59:18.295Z,4.17
2018-05-06T05:01:45.671Z,3.77
2018-05-06T05:04:13.058Z,3.80
2018-05-06T05:06:40.499Z,4.97
2018-05-06T05:09:07.872Z,4.27
2018-05-06T05:11:35.306Z,4.03
2018-05-06T05:14:21.611Z,4.20
2018-05-06T05:16:49.407Z,4.30
2018-05-06T05:19:16.887Z,4.50
2018-05-06T05:21:44.295Z,3.83
2018-05-06T05:24:11.691Z,3.67
2018-05-06T05:26:39.145Z,3.97
2018-05-06T05:29:06.574Z,4.10
2018-05-06T05:31:35.263Z,3.87
2018-05-06T05:34:02.708Z,5.07
2018-05-06T05:36:30.154Z,4.17
2018-05-06T05:38:57.594Z,4.27
2018-05-06T05:41:25.079Z,4.20
2018-05-06T05:43:52.554Z,3.73
2018-05-06T05:46:20.000Z,3.70
2018-05-06T05:48:47.442Z,3.20
2018-05-06T05:51:14.835Z,4.20
2018-05-06T05:53:42.219Z,3.90
2018-05-06T05:56:09.620Z,3.10
2018-05-06T05:58:37.341Z,3.37
2018-05-06T06:01:04.740Z,2.70
2018-05-06T06:03:32.121Z,4.37
2018-05-06T06:05:59.513Z,2.53
2018-05-06T06:08:26.901Z,3.50
2018-05-06T06:10:54.542Z,3.20
2018-05-06T06:13:21.920Z,3.07
2018-05-06T06:15:50.111Z,2.97
2018-05-06T06:18:17.515Z,3.58
2018-05-06T06:20:45.032Z,3.10
2018-05-06T06:23:13.889Z,2.83
2018-05-06T06:25:42.089Z,3.53
2018-05-06T06:28:09.517Z,3.50
2018-05-06T06:30:36.995Z,3.25
2018-05-06T06:33:04.520Z,3.20
2018-05-06T06:35:32.828Z,4.07
2018-05-06T06:38:00.328Z,3.95
2018-05-06T06:40:27.849Z,3.70
2018-05-06T06:42:55.935Z,3.53
2018-05-06T06:45:23.290Z,4.30
2018-05-06T06:47:51.680Z,3.72
2018-05-06T06:50:19.134Z,3.00
2018-05-06T06:52:46.580Z,3.95
2018-05-06T06:55:14.950Z,3.55
2018-05-06T06:57:42.513Z,3.27
2018-05-06T07:00:09.883Z,2.67
2018-05-06T07:02:39.029Z,3.30
2018-05-06T07:05:06.434Z,4.10
2018-05-06T07:07:33.880Z,3.80
2018-05-06T07:10:01.356Z,3.40
2018-05-06T07:12:29.169Z,2.55
2018-05-06T07:14:56.555Z,3.50
2018-05-06T07:17:24.019Z,3.27
2018-05-06T07:19:52.603Z,4.10
2018-05-06T07:22:20.060Z,3.20
2018-05-06T07:24:47.508Z,3.43
2018-05-06T07:27:14.897Z,3.53
2018-05-06T07:29:44.461Z,3.70
2018-05-06T07:32:11.864Z,3.70
2018-05-06T07:34:39.245Z,3.87
2018-05-06T07:37:07.967Z,4.87
2018-05-06T07:39:35.450Z,3.33
2018-05-06T07:42:02.906Z,4.17
2018-05-06T07:44:30.367Z,3.93
2018-05-06T07:46:57.822Z,2.87
2018-05-06T07:49:25.966Z,3.40
2018-05-06T07:51:53.652Z,3.87
2018-05-06T07:54:21.111Z,3.60
2018-05-06T07:56:48.569Z,3.85
2018-05-06T07:59:16.522Z,4.25
2018-05-06T08:01:43.977Z,3.87
2018-05-06T08:04:11.466Z,4.13
2018-05-06T08:06:39.604Z,3.62
2018-05-06T08:09:06.996Z,3.55
2018-05-06T08:11:34.383Z,3.93
2018-05-06T08:14:02.622Z,3.47
2018-05-06T08:16:30.062Z,3.70
2018-05-06T08:18:57.444Z,3.03
2018-05-06T08:21:25.824Z,3.95
2018-05-06T08:23:53.371Z,4.85
2018-05-06T08:26:20.856Z,3.40
2018-05-06T08:28:49.223Z,3.37
2018-05-06T08:31:16.706Z,4.20
2018-05-06T08:36:50.802Z,4.07
2018-05-06T08:39:28.517Z,3.17
2018-05-06T08:41:57.871Z,3.50
2018-05-06T08:44:25.601Z,3.97
2018-05-06T08:46:53.009Z,4.47
2018-05-06T08:49:20.616Z,4.67
2018-05-06T08:51:49.476Z,3.73
2018-05-06T08:54:17.328Z,4.10
2018-05-06T08:56:44.714Z,3.80
2018-05-06T08:59:12.100Z,4.10
2018-05-06T09:01:39.498Z,3.90
2018-05-06T09:04:07.806Z,4.10
2018-05-06T09:06:35.171Z,3.78
2018-05-06T09:09:02.559Z,3.67
2018-05-06T09:11:29.956Z,3.87
2018-05-06T09:13:58.254Z,4.00
2018-05-06T09:16:25.652Z,5.47
2018-05-06T09:18:53.423Z,3.95
2018-05-06T09:21:20.811Z,3.40
2018-05-06T09:23:48.798Z,4.37
2018-05-06T09:26:16.163Z,4.37
2018-05-06T09:28:43.571Z,3.70
2018-05-06T09:31:11.167Z,3.92
2018-05-06T09:33:38.550Z,4.40
2018-05-06T09:36:06.244Z,4.17
2018-05-06T09:38:34.281Z,4.87
2018-05-06T09:41:01.674Z,3.60
2018-05-06T09:43:33.179Z,3.70
2018-05-06T09:46:00.586Z,4.30
2018-05-06T09:48:27.971Z,3.57
2018-05-06T09:50:55.359Z,3.53
2018-05-06T09:53:22.755Z,3.70
2018-05-06T09:55:50.155Z,4.60
2018-05-06T09:58:17.893Z,3.58
2018-05-06T10:00:45.274Z,4.57
2018-05-06T10:03:12.656Z,3.50
2018-05-06T10:05:40.971Z,3.65
2018-05-06T10:08:09.257Z,3.60
2018-05-06T10:10:37.167Z,3.37
2018-05-06T10:13:04.560Z,3.20
2018-05-06T10:15:31.967Z,3.60
2018-05-06T10:17:59.342Z,3.20
2018-05-06T10:20:26.750Z,4.20
2018-05-06T10:22:55.273Z,3.47
2018-05-06T10:25:22.669Z,3.80
2018-05-06T10:27:50.072Z,3.13
2018-05-06T10:30:17.543Z,3.93
2018-05-06T10:32:44.935Z,3.30
2018-05-06T10:35:12.610Z,3.50
2018-05-06T10:37:39.996Z,3.73
2018-05-06T10:40:07.416Z,3.40
2018-05-06T10:42:34.872Z,2.70
2018-05-06T10:45:02.258Z,4.30
2018-05-06T10:47:30.412Z,3.50
2018-05-06T10:49:57.795Z,3.40
2018-05-06T10:52:25.184Z,3.77
2018-05-06T10:55:01.465Z,4.18
2018-05-06T10:57:30.189Z,3.28
2018-05-06T10:59:58.662Z,4.00
2018-05-06T11:02:27.244Z,2.93
2018-05-06T11:04:54.640Z,3.63
2018-05-06T11:07:22.037Z,3.30
2018-05-06T11:09:49.505Z,3.07
2018-05-06T11:12:18.226Z,3.47
2018-05-06T11:14:46.319Z,3.10
2018-05-06T11:17:13.724Z,3.23
2018-05-06T11:19:41.124Z,4.00
2018-05-06T11:22:08.527Z,3.30
2018-05-06T11:24:35.920Z,4.03
2018-05-06T11:27:03.359Z,3.60
2018-05-06T11:29:31.085Z,3.25
2018-05-06T11:31:58.539Z,3.87
2018-05-06T11:34:25.927Z,3.70
2018-05-06T11:36:53.351Z,2.70
2018-05-06T11:39:20.797Z,3.33
2018-05-06T11:41:48.180Z,4.43
2018-05-06T11:44:15.577Z,4.13
2018-05-06T11:46:42.963Z,3.67
2018-05-06T11:49:10.380Z,3.03
2018-05-06T11:51:38.676Z,3.20
2018-05-06T11:54:06.071Z,3.58
2018-05-06T11:56:33.505Z,3.00
2018-05-06T11:59:00.972Z,3.40
2018-05-06T12:01:28.634Z,2.70
2018-05-06T12:03:56.244Z,3.70
2018-05-06T12:06:23.632Z,3.33
2018-05-06T12:08:51.062Z,2.70
2018-05-06T12:11:18.483Z,3.70
2018-05-06T12:13:45.875Z,3.30
2018-05-06T12:16:14.152Z,3.03
2018-05-06T12:18:41.556Z,2.90
2018-05-06T12:21:08.939Z,3.80
2018-05-06T12:23:36.338Z,3.23
2018-05-06T12:26:03.990Z,3.30
2018-05-06T12:28:31.750Z,3.43
2018-05-06T12:30:59.152Z,3.37
2018-05-06T12:33:26.539Z,3.50
2018-05-06T12:35:53.930Z,2.93
2018-05-06T12:38:21.327Z,3.20
2018-05-06T12:40:48.709Z,3.03
2018-05-06T12:43:16.193Z,3.23
2018-05-06T12:45:43.699Z,3.17
2018-05-06T12:48:11.090Z,2.67
2018-05-06T12:50:38.496Z,3.67
2018-05-06T12:53:06.002Z,3.03
2018-05-06T12:55:34.364Z,3.03
2018-05-06T12:58:01.816Z,3.43
2018-05-06T13:00:29.251Z,2.73
2018-05-06T13:02:56.715Z,3.13
2018-05-06T13:05:24.164Z,2.77
2018-05-06T13:07:52.033Z,3.20
2018-05-06T13:10:20.423Z,2.80
2018-05-06T13:12:47.796Z,2.62
2018-05-06T13:15:15.428Z,2.70
2018-05-06T13:17:42.820Z,2.50
2018-05-06T13:20:10.251Z,2.65
2018-05-06T13:22:38.836Z,2.70
2018-05-06T13:25:06.301Z,2.83
2018-05-06T13:27:33.744Z,2.93
2018-05-06T13:30:01.217Z,2.30
2018-05-06T13:32:28.688Z,2.10
2018-05-06T13:34:56.811Z,1.90
2018-05-06T13:37:24.775Z,2.10
2018-05-06T13:39:52.179Z,2.20
2018-05-06T13:42:19.707Z,1.97
2018-05-06T13:44:47.104Z,2.40
2018-05-06T13:47:14.854Z,2.43
2018-05-06T13:49:42.264Z,2.80
2018-05-06T13:52:09.669Z,2.00
2018-05-06T13:54:37.064Z,2.37
2018-05-06T13:57:05.321Z,2.50
2018-05-06T13:59:32.708Z,2.10
2018-05-06T14:02:00.093Z,2.12
2018-05-06T14:04:27.478Z,1.87
2018-05-06T14:06:54.923Z,2.10
2018-05-06T14:09:23.495Z,1.70
2018-05-06T22:02:37.772Z,1.60
2018-05-06T22:05:05.177Z,1.53
2018-05-06T22:07:32.613Z,2.30
2018-05-06T22:09:59.955Z,1.85
2018-05-06T22:12:27.326Z,2.20
2018-05-06T22:14:55.250Z,1.85
2018-05-06T22:17:22.633Z,2.20
2018-05-06T22:19:50.028Z,1.50
2018-05-06T22:22:17.446Z,1.60
2018-05-06T22:24:44.807Z,1.90
2018-05-06T22:27:12.196Z,1.70
2018-05-06T22:29:39.587Z,1.80
2018-05-06T22:32:06.990Z,1.47
2018-05-06T22:34:34.412Z,4.60
2018-05-06T22:37:01.792Z,5.47
2018-05-06T22:39:29.960Z,3.60
2018-05-06T22:41:57.347Z,2.73
2018-05-06T22:44:24.740Z,2.90
2018-05-06T22:46:52.123Z,3.12
2018-05-06T22:49:19.506Z,2.57
2018-05-06T22:51:46.930Z,2.50
2018-05-06T22:54:14.286Z,2.63
2018-05-06T22:56:41.677Z,3.30
2018-05-06T22:59:09.064Z,2.63
2018-05-06T23:01:36.455Z,2.20
2018-05-06T23:04:03.839Z,2.53
2018-05-06T23:06:31.231Z,3.83
2018-05-06T23:08:58.623Z,4.03
2018-05-06T23:11:26.026Z,2.30
2018-05-06T23:13:53.403Z,2.93
2018-05-06T23:16:20.862Z,2.63
2018-05-06T23:18:48.195Z,2.60
2018-05-06T23:21:15.591Z,2.70
2018-05-06T23:23:42.992Z,2.20
2018-05-06T23:26:10.371Z,1.80
2018-05-06T23:28:37.757Z,1.83
2018-05-06T23:31:05.143Z,2.17
2018-05-06T23:33:32.537Z,1.80
2018-05-06T23:35:59.922Z,1.80
2018-05-06T23:38:28.128Z,2.10
2018-05-06T23:40:55.528Z,1.90
2018-05-06T23:43:22.925Z,2.00
2018-05-06T23:45:50.317Z,5.32
2018-05-06T23:48:17.700Z,3.93
2018-05-06T23:50:45.100Z,3.53
2018-05-06T23:53:12.489Z,4.55
2018-05-06T23:55:39.906Z,4.20
2018-05-06T23:58:07.268Z,5.20
